Indian Head, PA (15446)

5:43 PM EDT on May 05, 2015 (GMT -0400)
Indian Head | | Change Station
CLOSE
Current Station
Personal Weather Station
Location: Indian Head, PA
Elevation: 1421 ft
Nearby Weather Stations

Elev 1421 ft 40.03 °N, 79.40 °W | Updated 32 minutes ago

Overcast
Overcast
84.9 °F
Feels Like 85 °F
N
1.6
Wind Variable Wind from SE

Today
High -- | Low -- °F
--% Chance of Precip.
Yesterday
High -- | Low -- °F
Precip. -- in
6:13 AM 8:16 PM
Full, 97% visible
Pressure 30.25 in
Visibility 15.0 miles
Clouds Scattered Clouds 3500 ft
Mostly Cloudy 15000 ft
Heat Index 85 °F
Dew Point 60 °F
Humidity 44%
Rainfall 0.02 in
Snow Depth Not available.
UV 3 out of 12
Pollen 5.80 out of 12
Air Quality Not available.
Flu Activity Sporadic
METAR KLBE 052050Z 30010KT 15SM SCT035 BKN150 23/15 A3025

More Conditions Fewer Conditions

Pressure 30.25 in
Visibility 15.0 miles
Clouds Scattered Clouds 3500 ft
Mostly Cloudy 15000 ft
Heat Index 85 °F
Dew Point 60 °F
Humidity 44%
Rainfall 0.02 in
Snow Depth Not available.
UV 3 out of 12
Pollen 5.80 out of 12
Air Quality Not available.
Flu Activity Sporadic
METAR KLBE 052050Z 30010KT 15SM SCT035 BKN150 23/15 A3025

More Conditions Fewer Conditions

10-Day Weather Forecast

Almanac

Astronomy

May. 05, 2015 Rise Set
Actual Time
Civil Twilight
Nautical Twilight
Astronomical Twilight
Moon
Length of Visible Light
Length of Day
Tomorrow will be .
, % of the Moon is Illuminated

Today's Extremes

State Highs State Lows

Community

WunderPhotos

Upload Photos

1,818,982 photos uploaded!

WunderBlogs® & News

Nearby

Air Quality

  Air Quality AQ Index Pollutant
Not available.

Snow Depth

Station Depth Elevation

Earthquake Activity

City Distance Mag. Time & Date
Minimum magnitude displayed is 2.5.

Coastal Water Temperatures

Place Temperature

Stations

Nearby Weather Stations

Station Location Temp. Windchill Dew Point Humidity Wind Precip. Elev Updated Type